バンコク/スワンナプーム の空港の天気 - METARとTAF

スワンナプーム国際空港 ( VTBS / BKK ) - タイ サムットプラーカーン県 (バンコク近郊)
飛行場実況気象(Metar)
観測時間01/22 16:30 ICT (01/22 09:30 UTC)
風向・風速東北東 5m/s
視程10km以上
天気現象
少しの雲 雲底高度 910m
気温31℃
湿度43%
気圧1013hPa
METARVTBS 220930Z 07009KT 030V110 9999 FEW030 31/17 Q1013 NOSIG
過去の天気等 Google飛行場航空写真 Wunderground天気予報

過去48時間のMETAR

飛行場予報(TAF)
発表時間: 1/22 12:00 ICT (1/22 05:00 UTC)
予報対象時間: 22日13時 ICT ~ 23日19時 ICT
風向・風速東北東 8m/s
視程10km以上
少しの雲 雲底高度 1,220m
22日17時 ICT ~ 22日19時 ICT に徐々に
風向・風速北北東 3m/s
23日6時 ICT ~ 23日8時 ICT に徐々に
風向・風速東北東 6m/s
TAF VTBS 220500Z 2206/2312 07015KT 9999 FEW040
BECMG 2210/2212 02005KT
BECMG 2223/2301 07012KT